createdAt,value
2022-11-18T00:00:47.134Z,1.60
2022-11-18T00:03:20.948Z,1.75
2022-11-18T00:06:00.386Z,1.70
2022-11-18T00:08:39.671Z,1.40
2022-11-18T00:11:14.003Z,1.48
2022-11-18T00:14:00.850Z,1.60
2022-11-18T00:16:34.702Z,1.80
2022-11-18T00:19:08.551Z,1.60
2022-11-18T00:21:42.369Z,1.83
2022-11-18T00:24:21.596Z,1.52
2022-11-18T00:26:55.500Z,1.60
2022-11-18T00:29:29.728Z,1.90
2022-11-18T00:32:07.204Z,1.92
2022-11-18T00:34:41.114Z,1.50
2022-11-18T00:37:14.975Z,1.88
2022-11-18T00:39:54.227Z,1.20
2022-11-18T00:42:41.124Z,1.92
2022-11-18T00:45:15.646Z,1.60
2022-11-18T00:47:49.555Z,1.70
2022-11-18T00:50:23.858Z,1.67
2022-11-18T00:52:57.679Z,1.65
2022-11-18T00:55:36.841Z,1.58
2022-11-18T00:58:10.924Z,2.03
2022-11-18T01:00:44.744Z,1.50
2022-11-18T01:03:18.857Z,1.77
2022-11-18T01:05:52.699Z,1.95
2022-11-18T01:08:26.982Z,1.70
2022-11-18T01:11:18.993Z,1.45
2022-11-18T01:13:55.317Z,1.92
2022-11-18T01:16:30.514Z,1.70
2022-11-18T01:19:04.437Z,2.10
2022-11-18T01:21:38.453Z,1.60
2022-11-18T01:24:13.063Z,2.00
2022-11-18T01:26:52.289Z,1.75
2022-11-18T01:29:26.118Z,1.60
2022-11-18T01:34:53.931Z,1.63
2022-11-18T01:37:27.808Z,2.53
2022-11-18T01:40:01.737Z,1.33
2022-11-18T01:42:40.913Z,2.42
2022-11-18T01:45:24.477Z,1.70
2022-11-18T01:48:01.819Z,1.60
2022-11-18T01:50:35.788Z,1.95
2022-11-18T01:53:11.486Z,2.25
2022-11-18T01:55:47.014Z,1.20
2022-11-18T01:58:28.130Z,1.35
2022-11-18T02:01:02.195Z,1.70
2022-11-18T02:03:36.058Z,1.83
2022-11-18T02:06:10.293Z,1.30
2022-11-18T02:08:44.108Z,1.70
2022-11-18T02:11:39.583Z,2.50
2022-11-18T02:14:18.901Z,2.10
2022-11-18T02:17:02.459Z,1.75
2022-11-18T02:19:48.251Z,1.48
2022-11-18T02:25:02.800Z,2.20
2022-11-18T02:28:10.821Z,2.00
2022-11-18T02:30:53.848Z,2.28
2022-11-18T02:33:31.252Z,2.30
2022-11-18T02:36:08.531Z,1.65
2022-11-18T02:38:44.185Z,2.10
2022-11-18T02:41:19.711Z,1.77
2022-11-18T02:43:54.961Z,1.90
2022-11-18T02:46:36.363Z,1.65
2022-11-18T02:49:13.440Z,2.20
2022-11-18T02:51:47.463Z,1.95
2022-11-18T02:54:21.344Z,1.50
2022-11-18T02:56:55.282Z,2.72
2022-11-18T02:59:29.227Z,1.98
2022-11-18T03:02:08.407Z,2.13
2022-11-18T03:04:42.210Z,3.05
2022-11-18T03:07:18.704Z,1.65
2022-11-18T03:09:54.085Z,2.00
2022-11-18T03:15:10.939Z,2.40
2022-11-18T03:17:54.006Z,2.40
2022-11-18T03:20:30.242Z,1.70
2022-11-18T03:23:07.499Z,2.10
2022-11-18T03:25:43.367Z,1.77
2022-11-18T03:28:19.049Z,2.13
2022-11-18T03:30:56.245Z,1.90
2022-11-18T03:33:37.888Z,2.20
2022-11-18T03:36:13.471Z,2.50
2022-11-18T03:38:49.087Z,2.00
2022-11-18T03:41:23.742Z,1.75
2022-11-18T03:44:00.080Z,2.00
2022-11-18T03:46:36.565Z,1.80
2022-11-18T03:49:16.868Z,2.38
2022-11-18T03:51:52.724Z,2.55
2022-11-18T03:54:28.861Z,1.83
2022-11-18T03:57:04.400Z,1.77
2022-11-18T03:59:39.789Z,1.80
2022-11-18T04:04:59.188Z,1.95
2022-11-18T04:07:37.444Z,1.65
2022-11-18T04:10:19.386Z,2.67
2022-11-18T04:13:03.143Z,1.65
2022-11-18T04:15:39.938Z,2.10
2022-11-18T04:18:14.043Z,1.77
2022-11-18T04:21:22.532Z,2.40
2022-11-18T04:23:56.317Z,2.53
2022-11-18T04:26:30.096Z,1.90
2022-11-18T04:29:04.003Z,2.30
2022-11-18T04:31:37.867Z,2.25
2022-11-18T04:34:11.715Z,1.95
2022-11-18T04:36:50.843Z,2.05
2022-11-18T04:39:24.892Z,2.45
2022-11-18T04:42:04.590Z,2.17
2022-11-18T04:44:39.428Z,2.10
2022-11-18T04:47:13.565Z,2.15
2022-11-18T04:49:47.451Z,2.08
2022-11-18T04:52:26.768Z,2.15
2022-11-18T04:55:00.667Z,2.10
2022-11-18T04:57:34.828Z,1.67
2022-11-18T05:00:09.111Z,2.13
2022-11-18T05:02:43.251Z,2.05
2022-11-18T05:05:17.336Z,2.15
2022-11-18T05:07:57.315Z,2.40
2022-11-18T05:10:31.461Z,2.65
2022-11-18T05:13:01.970Z,2.00
2022-11-18T05:15:35.868Z,2.42
2022-11-18T05:18:10.072Z,2.00
2022-11-18T05:20:44.762Z,2.25
2022-11-18T05:23:25.236Z,2.33
2022-11-18T05:26:02.437Z,2.00
2022-11-18T05:28:36.579Z,2.10
2022-11-18T05:31:14.139Z,1.90
2022-11-18T05:33:48.330Z,2.42
2022-11-18T05:36:23.126Z,2.40
2022-11-18T05:39:04.905Z,1.98
2022-11-18T05:41:52.129Z,2.05
2022-11-18T05:44:26.203Z,2.85
2022-11-18T05:47:01.258Z,2.47
2022-11-18T05:49:35.181Z,2.38
2022-11-18T05:52:09.747Z,2.47
2022-11-18T05:54:53.864Z,2.42
2022-11-18T05:57:27.779Z,2.38
2022-11-18T06:00:01.735Z,2.90
2022-11-18T06:02:35.669Z,2.33
2022-11-18T06:05:14.737Z,2.38
2022-11-18T06:07:49.341Z,2.80
2022-11-18T06:10:29.319Z,2.72
2022-11-18T06:13:04.683Z,2.25
2022-11-18T06:18:14.695Z,2.22
2022-11-18T06:20:48.755Z,2.53
2022-11-18T06:23:22.759Z,2.03
2022-11-18T06:26:01.864Z,2.50
2022-11-18T06:28:35.708Z,2.28
2022-11-18T06:31:09.929Z,2.55
2022-11-18T06:33:45.825Z,2.85
2022-11-18T06:36:19.802Z,3.10
2022-11-18T06:38:53.911Z,2.13
2022-11-18T06:41:33.117Z,2.35
2022-11-18T06:44:04.282Z,2.60
2022-11-18T06:46:51.411Z,2.83
2022-11-18T06:49:25.454Z,2.58
2022-11-18T06:51:59.578Z,2.80
2022-11-18T06:54:33.693Z,2.40
2022-11-18T06:57:12.839Z,2.22
2022-11-18T06:59:46.819Z,2.10
2022-11-18T07:02:29.782Z,2.50
2022-11-18T07:05:03.804Z,2.08
2022-11-18T07:07:42.182Z,2.38
2022-11-18T07:10:16.596Z,2.47
2022-11-18T07:12:55.705Z,2.63
2022-11-18T07:15:29.559Z,2.33
2022-11-18T07:18:03.468Z,3.17
2022-11-18T07:20:37.338Z,2.95
2022-11-18T07:23:11.338Z,2.90
2022-11-18T07:25:45.549Z,2.90
2022-11-18T07:28:24.869Z,2.88
2022-11-18T07:30:58.754Z,2.38
2022-11-18T07:33:32.871Z,3.65
2022-11-18T07:36:09.931Z,2.22
2022-11-18T07:38:43.817Z,3.13
2022-11-18T07:41:18.752Z,3.00
2022-11-18T07:44:00.721Z,2.38
2022-11-18T07:46:36.034Z,2.42
2022-11-18T07:49:10.651Z,2.22
2022-11-18T07:51:45.283Z,2.72
2022-11-18T07:54:20.113Z,2.75
2022-11-18T07:56:54.301Z,3.28
2022-11-18T07:59:33.616Z,2.80
2022-11-18T08:02:07.750Z,2.70
2022-11-18T08:04:43.381Z,3.05
2022-11-18T08:07:17.420Z,1.90
2022-11-18T08:09:51.328Z,2.80
2022-11-18T08:12:25.238Z,2.70
2022-11-18T08:15:04.483Z,2.22
2022-11-18T08:17:38.895Z,2.80
2022-11-18T08:20:13.633Z,3.03
2022-11-18T08:22:47.540Z,2.80
2022-11-18T08:25:22.669Z,3.22
2022-11-18T08:27:56.585Z,2.75
2022-11-18T08:30:35.696Z,3.67
2022-11-18T08:33:09.802Z,3.28
2022-11-18T08:35:43.683Z,3.47
2022-11-18T08:38:17.503Z,2.88
2022-11-18T08:40:52.947Z,3.60
2022-11-18T08:46:05.897Z,2.90
2022-11-18T08:48:39.725Z,3.20
2022-11-18T08:51:15.303Z,3.40
2022-11-18T08:53:49.236Z,3.08
2022-11-18T08:56:24.333Z,2.97
2022-11-18T08:58:58.290Z,2.90
2022-11-18T09:01:37.611Z,2.97
2022-11-18T09:04:11.633Z,2.80
2022-11-18T09:06:45.607Z,2.83
2022-11-18T09:09:19.872Z,2.60
2022-11-18T09:11:54.179Z,2.57
2022-11-18T09:17:27.168Z,2.70
2022-11-18T09:20:03.938Z,2.58
2022-11-18T09:22:37.816Z,2.60
2022-11-18T09:25:12.418Z,2.58
2022-11-18T09:27:46.338Z,2.72
2022-11-18T09:30:20.692Z,2.95
2022-11-18T09:32:59.949Z,2.80
2022-11-18T09:35:34.918Z,2.47
2022-11-18T09:38:08.985Z,4.50
2022-11-18T09:40:43.453Z,2.42
2022-11-18T09:43:19.356Z,2.80
2022-11-18T09:45:53.988Z,2.60
2022-11-18T09:48:53.300Z,2.63
2022-11-18T09:51:27.140Z,2.22
2022-11-18T09:54:01.373Z,2.40
2022-11-18T09:56:35.265Z,2.55
2022-11-18T09:59:09.473Z,2.90
2022-11-18T10:01:43.368Z,3.70
2022-11-18T10:04:27.500Z,3.42
2022-11-18T10:07:01.661Z,2.40
2022-11-18T10:09:39.349Z,2.50
2022-11-18T10:12:21.676Z,2.47
2022-11-18T10:15:22.407Z,2.67
2022-11-18T10:18:01.140Z,2.05
2022-11-18T10:20:46.912Z,2.63
2022-11-18T10:25:56.333Z,2.70
2022-11-18T10:28:31.434Z,2.88
2022-11-18T10:31:11.650Z,2.95
2022-11-18T10:33:45.591Z,2.85
2022-11-18T10:36:35.167Z,3.97
2022-11-18T10:39:19.641Z,3.00
2022-11-18T10:41:54.357Z,2.45
2022-11-18T10:44:44.490Z,1.95
2022-11-18T10:47:35.830Z,2.95
2022-11-18T10:50:30.605Z,1.95
2022-11-18T10:53:09.882Z,2.10
2022-11-18T10:55:43.727Z,2.03
2022-11-18T10:58:20.283Z,2.50
2022-11-18T11:00:54.462Z,3.03
2022-11-18T11:03:41.730Z,2.13
2022-11-18T11:06:29.332Z,3.00
2022-11-18T11:09:10.355Z,2.70
2022-11-18T11:11:44.746Z,2.63
2022-11-18T11:14:25.302Z,2.85
2022-11-18T11:17:18.239Z,2.17
2022-11-18T11:19:56.876Z,1.98
2022-11-18T11:22:30.773Z,2.35
2022-11-18T11:25:12.366Z,2.47
2022-11-18T11:30:47.753Z,2.22
2022-11-18T11:33:36.607Z,3.33
2022-11-18T11:36:16.122Z,2.40
2022-11-18T11:39:04.612Z,2.03
2022-11-18T11:41:46.026Z,2.50
2022-11-18T11:44:39.897Z,2.05
2022-11-18T11:47:33.508Z,2.58
2022-11-18T11:50:09.257Z,3.08
2022-11-18T11:52:47.484Z,1.95
2022-11-18T11:55:25.397Z,2.95
2022-11-18T11:58:16.573Z,2.40
2022-11-18T12:00:53.953Z,2.80
2022-11-18T12:03:51.955Z,2.83
2022-11-18T12:06:26.298Z,2.20
2022-11-18T12:09:12.345Z,2.20
2022-11-18T12:11:49.927Z,2.33
2022-11-18T12:14:40.019Z,2.80
2022-11-18T12:17:15.864Z,2.35
2022-11-18T12:19:49.889Z,2.20
2022-11-18T12:22:24.164Z,2.53
2022-11-18T12:24:58.063Z,2.70
2022-11-18T12:28:04.535Z,2.35
2022-11-18T12:30:44.026Z,2.35
2022-11-18T12:33:18.310Z,3.35
2022-11-18T12:35:54.416Z,2.70
2022-11-18T12:38:35.516Z,2.25
2022-11-18T12:41:29.839Z,2.47
2022-11-18T12:44:07.193Z,2.30
2022-11-18T12:47:02.533Z,2.25
2022-11-18T12:50:16.856Z,1.97
2022-11-18T12:52:58.868Z,2.40
2022-11-18T12:55:37.713Z,1.67
2022-11-18T12:58:25.572Z,2.50
2022-11-18T13:01:12.983Z,2.00
2022-11-18T13:03:58.843Z,1.95
2022-11-18T13:09:07.528Z,2.15
2022-11-18T13:11:52.072Z,2.40
2022-11-18T13:14:40.150Z,2.30
2022-11-18T13:17:48.693Z,2.88
2022-11-18T13:20:36.570Z,2.30
2022-11-18T13:23:25.703Z,2.25
2022-11-18T13:25:59.539Z,2.72
2022-11-18T13:28:39.526Z,2.10
2022-11-18T13:31:17.640Z,1.50
2022-11-18T13:33:51.584Z,2.13
2022-11-18T13:36:31.828Z,1.95
2022-11-18T13:39:06.798Z,1.67
2022-11-18T13:41:41.363Z,2.35
2022-11-18T13:44:22.282Z,1.88
2022-11-18T13:46:58.062Z,1.90
2022-11-18T13:49:38.794Z,2.15
2022-11-18T13:52:18.529Z,2.13
2022-11-18T13:54:52.477Z,2.08
2022-11-18T13:57:27.128Z,1.98
2022-11-18T14:00:01.346Z,2.50
2022-11-18T14:02:35.180Z,1.80
2022-11-18T14:05:09.227Z,2.25
2022-11-18T14:07:48.592Z,1.70
2022-11-18T14:10:22.903Z,1.83
2022-11-18T14:13:05.325Z,2.30
2022-11-18T14:15:44.178Z,1.80
2022-11-18T14:18:27.983Z,2.17
2022-11-18T14:21:02.088Z,1.85
2022-11-18T14:23:43.265Z,1.83
2022-11-18T14:26:17.412Z,2.25
2022-11-18T14:29:00.218Z,2.28
2022-11-18T14:31:34.733Z,2.00
2022-11-18T14:34:27.567Z,2.10
2022-11-18T14:37:02.678Z,2.55
2022-11-18T14:39:42.174Z,2.30
2022-11-18T14:42:19.097Z,2.60
2022-11-18T14:44:52.980Z,2.40
2022-11-18T14:47:31.829Z,2.60
2022-11-18T14:50:05.654Z,2.13
2022-11-18T14:52:39.555Z,2.60
2022-11-18T14:55:18.921Z,2.92
2022-11-18T14:57:52.930Z,2.70
2022-11-18T15:00:27.096Z,2.40
2022-11-18T15:03:02.576Z,2.42
2022-11-18T15:05:36.457Z,2.58
2022-11-18T15:08:10.619Z,2.60
2022-11-18T15:10:49.754Z,2.42
2022-11-18T15:13:23.742Z,2.80
2022-11-18T15:15:57.559Z,3.25
2022-11-18T15:18:31.529Z,3.40
2022-11-18T15:21:05.370Z,3.30
2022-11-18T15:23:39.268Z,3.10
2022-11-18T15:26:24.330Z,4.55
2022-11-18T15:28:59.032Z,2.55
2022-11-18T15:31:32.981Z,2.83
2022-11-18T15:34:07.162Z,2.65
2022-11-18T15:36:40.978Z,2.20
2022-11-18T15:39:15.329Z,3.30
2022-11-18T15:41:54.549Z,2.70
2022-11-18T15:44:28.358Z,2.65
2022-11-18T15:47:02.730Z,3.50
2022-11-18T15:49:36.633Z,3.00
2022-11-18T15:52:10.696Z,2.58
2022-11-18T15:54:44.704Z,2.72
2022-11-18T15:57:23.929Z,2.60
2022-11-18T15:59:57.834Z,3.22
2022-11-18T16:02:31.678Z,2.75
2022-11-18T16:05:05.569Z,2.70
2022-11-18T16:07:39.654Z,3.03
2022-11-18T16:10:28.815Z,3.28
2022-11-18T16:13:08.096Z,2.70
2022-11-18T16:15:51.090Z,2.85
2022-11-18T16:18:24.978Z,4.28
2022-11-18T16:21:04.812Z,2.88
2022-11-18T16:23:38.892Z,3.28
2022-11-18T16:26:12.958Z,3.45
2022-11-18T16:28:52.253Z,3.40
2022-11-18T16:31:38.991Z,3.65
2022-11-18T16:34:13.300Z,3.60
2022-11-18T16:36:48.540Z,3.47
2022-11-18T16:39:24.579Z,4.13
2022-11-18T16:42:03.781Z,4.18
2022-11-18T16:44:46.832Z,3.60
2022-11-18T16:47:20.675Z,3.55
2022-11-18T16:49:54.572Z,3.85
2022-11-18T16:52:28.594Z,3.83
2022-11-18T16:55:02.569Z,4.25
2022-11-18T16:57:36.625Z,3.63
2022-11-18T17:00:17.497Z,4.45
2022-11-18T17:02:51.274Z,4.38
2022-11-18T17:05:25.138Z,7.85
2022-11-18T17:07:59.025Z,8.32
2022-11-18T17:10:33.120Z,8.00
2022-11-18T17:13:07.032Z,10.02
2022-11-18T17:15:47.927Z,10.07
2022-11-18T17:18:21.789Z,11.25
2022-11-18T17:20:55.668Z,11.00
2022-11-18T17:23:29.543Z,9.82
2022-11-18T17:26:03.454Z,11.45
2022-11-18T17:28:37.551Z,8.85
2022-11-18T17:31:18.224Z,8.93
2022-11-18T17:33:52.150Z,11.45
2022-11-18T17:36:26.891Z,10.68
2022-11-18T17:39:01.961Z,10.10
2022-11-18T17:41:49.232Z,9.80
2022-11-18T17:44:23.722Z,9.68
2022-11-18T17:47:04.428Z,8.53
2022-11-18T17:49:38.409Z,7.68
2022-11-18T17:52:12.340Z,7.75
2022-11-18T17:54:46.363Z,6.25
2022-11-18T17:57:20.363Z,6.50
2022-11-18T17:59:54.356Z,6.68
2022-11-18T18:02:33.716Z,7.20
2022-11-18T18:05:09.136Z,8.05
2022-11-18T18:10:17.135Z,8.73
2022-11-18T18:13:04.135Z,7.72
2022-11-18T18:15:38.242Z,7.63
2022-11-18T18:18:17.500Z,7.78
2022-11-18T18:20:51.316Z,8.23
2022-11-18T18:23:25.202Z,7.95
2022-11-18T18:25:59.145Z,7.68
2022-11-18T18:28:33.347Z,7.97
2022-11-18T18:34:04.301Z,8.43
2022-11-18T18:36:38.357Z,9.30
2022-11-18T18:39:12.348Z,8.40
2022-11-18T18:41:46.189Z,8.68
2022-11-18T18:44:20.658Z,8.90
2022-11-18T18:46:49.388Z,10.20
2022-11-18T18:49:30.902Z,9.75
2022-11-18T18:52:04.925Z,8.43
2022-11-18T18:57:07.113Z,9.02
2022-11-18T18:59:41.333Z,9.02
2022-11-18T19:02:15.894Z,9.68
2022-11-18T19:04:55.204Z,10.00
2022-11-18T19:07:23.860Z,9.40
2022-11-18T19:09:57.756Z,9.63
2022-11-18T19:17:54.781Z,10.10
2022-11-18T19:25:46.902Z,10.07
2022-11-18T20:03:12.713Z,9.63
2022-11-18T20:08:16.687Z,8.95
2022-11-18T20:10:57.662Z,8.85
2022-11-18T20:13:31.608Z,9.20
2022-11-18T20:16:09.077Z,10.32
2022-11-18T20:18:43.386Z,9.73
2022-11-18T20:21:21.064Z,10.95
2022-11-18T20:23:55.470Z,9.38
2022-11-18T20:26:35.367Z,10.73
2022-11-18T20:29:09.386Z,10.75
2022-11-18T20:31:43.629Z,10.48
2022-11-18T20:34:19.206Z,10.63
2022-11-18T20:36:54.158Z,12.13
2022-11-18T20:39:29.669Z,12.38
2022-11-18T20:42:22.407Z,12.45
2022-11-18T20:44:57.932Z,12.77
2022-11-18T20:47:31.815Z,11.52
2022-11-18T20:50:05.627Z,10.75
2022-11-18T20:52:40.572Z,10.73
2022-11-18T20:55:15.378Z,10.48
2022-11-18T20:57:54.639Z,10.27
2022-11-18T21:00:28.535Z,9.27
2022-11-18T21:03:02.715Z,9.77
2022-11-18T21:05:36.633Z,9.63
2022-11-18T21:08:10.849Z,8.52
2022-11-18T21:10:46.984Z,8.45
2022-11-18T21:13:39.221Z,8.90
2022-11-18T21:16:13.547Z,8.80
2022-11-18T21:18:47.687Z,8.38
2022-11-18T22:15:14.025Z,6.43
2022-11-18T22:17:48.048Z,5.45
2022-11-18T22:20:22.587Z,6.78
2022-11-18T22:22:56.679Z,5.88
2022-11-18T22:25:30.608Z,5.63
2022-11-18T22:28:10.552Z,5.88
2022-11-18T22:30:49.746Z,5.22
2022-11-18T22:33:23.999Z,5.53
2022-11-18T22:35:57.869Z,5.10
2022-11-18T22:38:31.738Z,5.68
2022-11-18T22:41:06.938Z,5.38
2022-11-18T22:43:35.798Z,5.65
2022-11-18T22:46:15.366Z,4.97
2022-11-18T22:57:00.551Z,5.40
2022-11-18T22:59:34.492Z,4.53
2022-11-18T23:02:22.448Z,4.68
2022-11-18T23:04:56.492Z,4.20
2022-11-18T23:07:27.866Z,3.88
2022-11-18T23:10:02.074Z,5.07
2022-11-18T23:12:49.221Z,4.32
2022-11-18T23:15:23.538Z,4.82
2022-11-18T23:18:08.785Z,3.73
2022-11-18T23:20:45.522Z,3.58
2022-11-18T23:23:22.483Z,3.30
2022-11-18T23:25:58.031Z,3.10
2022-11-18T23:28:31.947Z,3.55
2022-11-18T23:31:11.352Z,3.58
2022-11-18T23:33:50.624Z,3.47
2022-11-18T23:36:25.832Z,3.28
2022-11-18T23:38:59.841Z,3.70
2022-11-18T23:41:33.769Z,3.20
2022-11-18T23:44:07.740Z,3.35
2022-11-18T23:46:41.602Z,3.60
2022-11-18T23:49:21.476Z,3.38
2022-11-18T23:51:55.525Z,3.50
2022-11-18T23:54:29.334Z,3.35
2022-11-18T23:57:05.519Z,3.80
2022-11-18T23:59:41.944Z,3.30
